Time;durP1;ratioP1;P1;durP2;ratioP2;P2;SDS_P1;SDS_P2;PMS_P1;PMS_P2;Temp;Humidity;BMP_temperature;BMP_pressure;BME280_temperature;BME280_humidity;BME280_pressure;Samples;Min_cycle;Max_cycle;Signal;HPM_P1;HPM_P2
2023/06/30 00:00:12;;;;;;;3.13;2.83;;;24.40;51.60;;;;;;5017383;28;20236;-82
2023/06/30 00:02:40;;;;;;;4.07;3.10;;;24.30;51.60;;;;;;5019721;28;20201;-82
2023/06/30 00:05:08;;;;;;;3.63;3.30;;;24.30;51.60;;;;;;5018712;28;20221;-82
2023/06/30 00:07:35;;;;;;;3.22;2.92;;;24.30;51.60;;;;;;5016543;28;20636;-83
2023/06/30 00:10:03;;;;;;;3.88;3.40;;;24.30;51.60;;;;;;5014438;28;20220;-83
2023/06/30 00:12:30;;;;;;;3.53;3.05;;;24.30;51.60;;;;;;5014112;28;20201;-83
2023/06/30 00:14:59;;;;;;;4.40;2.90;;;24.30;51.60;;;;;;5014287;28;20200;-83
2023/06/30 00:17:27;;;;;;;4.85;3.30;;;24.30;51.70;;;;;;5014565;28;20647;-83
2023/06/30 00:19:57;;;;;;;3.45;3.15;;;24.30;51.70;;;;;;4998017;28;20216;-83
2023/06/30 00:22:25;;;;;;;4.05;3.15;;;24.30;51.80;;;;;;5014071;28;20268;-83
2023/06/30 00:24:54;;;;;;;3.42;3.13;;;24.30;51.80;;;;;;5013837;28;20227;-83
2023/06/30 00:27:22;;;;;;;4.53;3.67;;;24.30;51.80;;;;;;5015114;28;20192;-82
2023/06/30 00:29:49;;;;;;;4.13;3.38;;;24.30;51.90;;;;;;5014597;28;20216;-83
2023/06/30 00:32:18;;;;;;;4.07;3.20;;;24.30;51.80;;;;;;5013973;28;20282;-82
2023/06/30 00:34:45;;;;;;;3.90;3.50;;;24.30;51.80;;;;;;4997211;28;20197;-83
2023/06/30 00:37:13;;;;;;;5.32;3.22;;;24.20;51.80;;;;;;5017306;28;20278;-83
2023/06/30 00:39:41;;;;;;;5.38;3.42;;;24.30;51.80;;;;;;5018408;28;20213;-83
2023/06/30 00:42:09;;;;;;;3.20;3.00;;;24.30;51.80;;;;;;5018287;28;20254;-83
2023/06/30 00:44:36;;;;;;;3.45;3.15;;;24.20;51.70;;;;;;5019007;28;20220;-83
2023/06/30 00:47:04;;;;;;;3.80;3.20;;;24.30;51.80;;;;;;5017846;28;20197;-83
2023/06/30 00:49:33;;;;;;;4.20;3.20;;;24.20;51.80;;;;;;5001985;28;20288;-83
2023/06/30 00:52:00;;;;;;;4.35;3.45;;;24.30;51.90;;;;;;5018254;28;20196;-83
2023/06/30 00:54:28;;;;;;;3.65;3.35;;;24.20;51.80;;;;;;5018026;28;20197;-83
2023/06/30 00:56:55;;;;;;;3.45;3.15;;;24.20;51.90;;;;;;5017982;28;20584;-83
2023/06/30 00:59:22;;;;;;;3.40;2.97;;;24.20;51.90;;;;;;5017868;28;20313;-83
2023/06/30 01:01:55;;;;;;;3.38;3.03;;;24.20;51.90;;;;;;5018462;28;20199;-83
2023/06/30 01:04:25;;;;;;;3.88;3.33;;;24.20;52.00;;;;;;5018103;28;20727;-83
2023/06/30 01:07:01;;;;;;;3.45;3.15;;;24.20;51.90;;;;;;5017800;28;20271;-83
2023/06/30 01:09:30;;;;;;;3.60;3.30;;;24.10;51.90;;;;;;5017926;28;20220;-83
2023/06/30 01:11:57;;;;;;;3.50;3.20;;;24.20;52.00;;;;;;5001106;28;20617;-83
2023/06/30 01:14:25;;;;;;;3.30;3.00;;;24.20;52.00;;;;;;5017600;28;20188;-83
2023/06/30 01:16:52;;;;;;;4.18;3.20;;;24.20;52.10;;;;;;5001635;28;20279;-83
2023/06/30 01:19:24;;;;;;;3.58;3.28;;;24.20;52.00;;;;;;5017128;28;20220;-83
2023/06/30 01:21:53;;;;;;;3.30;3.00;;;24.20;52.10;;;;;;5018669;28;20196;-83
2023/06/30 01:24:21;;;;;;;4.43;3.38;;;24.10;52.60;;;;;;5001766;28;20216;-83
2023/06/30 01:26:49;;;;;;;3.90;3.60;;;24.10;52.00;;;;;;5000621;28;20236;-83
2023/06/30 01:29:16;;;;;;;3.85;3.55;;;24.10;52.10;;;;;;5017276;28;20278;-83
2023/06/30 01:31:45;;;;;;;3.40;3.00;;;24.10;52.10;;;;;;5016976;28;20276;-83
2023/06/30 01:34:12;;;;;;;3.72;3.28;;;24.10;52.20;;;;;;5016645;28;20196;-83
2023/06/30 01:36:39;;;;;;;4.63;3.40;;;24.10;52.10;;;;;;5016923;28;20201;-83
2023/06/30 01:39:06;;;;;;;3.28;2.97;;;24.00;52.10;;;;;;5016787;28;20225;-83
2023/06/30 01:41:34;;;;;;;3.65;3.17;;;24.00;52.60;;;;;;5016660;28;20710;-83
2023/06/30 01:44:02;;;;;;;3.75;3.40;;;24.00;52.00;;;;;;5016457;28;20248;-83
2023/06/30 01:46:29;;;;;;;3.35;3.00;;;24.00;52.70;;;;;;5016098;28;20197;-83
2023/06/30 01:48:57;;;;;;;4.00;3.50;;;24.10;52.20;;;;;;5015858;28;20283;-83
2023/06/30 01:51:24;;;;;;;3.42;3.05;;;24.00;52.20;;;;;;5000311;28;20255;-83
2023/06/30 01:53:52;;;;;;;3.40;3.10;;;24.00;52.20;;;;;;5016298;28;20200;-83
2023/06/30 01:56:19;;;;;;;3.70;3.40;;;24.00;52.10;;;;;;5016940;28;20208;-83
2023/06/30 01:58:48;;;;;;;3.70;3.40;;;24.00;52.20;;;;;;5016087;28;20765;-83
2023/06/30 02:01:15;;;;;;;4.35;3.53;;;24.00;52.20;;;;;;5017623;28;20275;-83
2023/06/30 02:03:42;;;;;;;4.30;3.67;;;24.00;52.20;;;;;;5018667;28;20208;-83
2023/06/30 02:06:10;;;;;;;3.50;3.20;;;24.00;52.20;;;;;;5018372;28;20227;-82
2023/06/30 02:08:37;;;;;;;3.78;3.20;;;23.90;52.20;;;;;;5017530;28;20237;-83
2023/06/30 02:11:04;;;;;;;3.63;3.28;;;23.90;52.20;;;;;;5018221;28;20208;-83
2023/06/30 02:13:31;;;;;;;4.03;3.22;;;23.90;52.20;;;;;;5018427;28;20207;-83
2023/06/30 02:16:00;;;;;;;3.50;3.20;;;23.90;52.20;;;;;;5017479;28;20193;-83
2023/06/30 02:18:27;;;;;;;3.25;3.00;;;23.90;52.20;;;;;;5017558;28;20224;-83
2023/06/30 02:20:54;;;;;;;3.53;3.22;;;23.90;52.30;;;;;;5017784;28;20215;-83
2023/06/30 02:23:21;;;;;;;3.88;3.58;;;23.90;52.30;;;;;;5016897;28;20648;-83
2023/06/30 02:25:49;;;;;;;3.90;3.25;;;23.90;52.40;;;;;;5016561;28;20555;-83
2023/06/30 02:28:16;;;;;;;3.60;3.30;;;23.80;52.30;;;;;;5016250;28;20204;-83
2023/06/30 02:30:43;;;;;;;3.60;3.25;;;23.90;52.40;;;;;;4999624;28;20208;-83
2023/06/30 02:33:12;;;;;;;3.80;3.15;;;23.80;52.20;;;;;;5015808;28;20192;-83
2023/06/30 02:35:39;;;;;;;4.20;3.35;;;23.80;52.30;;;;;;5015774;28;20197;-83
2023/06/30 02:38:07;;;;;;;3.72;3.30;;;23.80;52.40;;;;;;5015210;28;20211;-83
2023/06/30 02:40:34;;;;;;;4.10;3.63;;;23.80;52.30;;;;;;5015489;28;20315;-83
2023/06/30 02:43:01;;;;;;;4.88;3.92;;;23.80;52.40;;;;;;5015591;28;20291;-83
2023/06/30 02:45:28;;;;;;;4.07;3.58;;;23.80;52.40;;;;;;5015621;28;20216;-83
2023/06/30 02:47:55;;;;;;;3.78;3.47;;;23.70;52.40;;;;;;5016104;28;20324;-83
2023/06/30 02:50:29;;;;;;;4.10;3.17;;;23.70;52.40;;;;;;4999496;28;20212;-83
2023/06/30 02:52:56;;;;;;;4.32;3.55;;;23.80;52.40;;;;;;5016781;28;20276;-83
2023/06/30 02:55:23;;;;;;;3.70;3.40;;;23.70;52.30;;;;;;5016085;28;20196;-83
2023/06/30 02:57:50;;;;;;;3.90;3.38;;;23.80;52.50;;;;;;4999958;28;20204;-83
2023/06/30 03:00:19;;;;;;;3.72;3.42;;;23.70;52.40;;;;;;5015942;28;20232;-82
2023/06/30 03:02:47;;;;;;;3.75;3.45;;;23.70;52.50;;;;;;5016675;28;20243;-83
2023/06/30 03:05:14;;;;;;;4.63;3.78;;;23.70;52.50;;;;;;5016425;28;20220;-83
2023/06/30 03:07:43;;;;;;;3.78;3.47;;;23.70;52.50;;;;;;5016714;28;20207;-83
2023/06/30 03:10:10;;;;;;;4.05;3.65;;;23.70;52.60;;;;;;5015611;28;20220;-83
2023/06/30 03:12:38;;;;;;;3.80;3.45;;;23.70;52.90;;;;;;5016944;28;20197;-83
2023/06/30 03:15:06;;;;;;;4.20;3.90;;;23.70;52.90;;;;;;5002687;28;20207;-83
2023/06/30 03:17:36;;;;;;;3.42;3.13;;;23.70;53.50;;;;;;5016718;28;20259;-83
2023/06/30 03:20:10;;;;;;;4.40;3.72;;;23.70;52.90;;;;;;5016966;28;20216;-83
2023/06/30 03:22:39;;;;;;;4.10;3.70;;;23.70;52.90;;;;;;5017840;28;20197;-83
2023/06/30 03:25:09;;;;;;;4.53;3.60;;;23.70;52.90;;;;;;5017869;28;20225;-83
2023/06/30 03:27:36;;;;;;;4.55;3.78;;;23.80;52.90;;;;;;5016764;28;20196;-83
2023/06/30 03:30:05;;;;;;;3.92;3.63;;;23.80;52.70;;;;;;5016365;28;20660;-82
2023/06/30 03:32:36;;;;;;;4.50;3.90;;;23.80;52.70;;;;;;5000768;28;20193;-83
2023/06/30 03:35:04;;;;;;;4.07;3.67;;;23.80;52.70;;;;;;5015647;28;20188;-83
2023/06/30 03:37:32;;;;;;;4.10;3.70;;;23.80;52.60;;;;;;5017271;28;20203;-83
2023/06/30 03:40:00;;;;;;;4.13;3.72;;;23.80;52.60;;;;;;5017321;28;20216;-83
2023/06/30 03:42:30;;;;;;;5.38;3.88;;;23.80;52.60;;;;;;5024810;28;20632;-83
2023/06/30 03:44:57;;;;;;;4.07;3.20;;;23.90;52.50;;;;;;5025791;28;20217;-83
2023/06/30 03:47:24;;;;;;;4.00;3.60;;;23.90;52.50;;;;;;5025757;28;20201;-82
2023/06/30 03:49:51;;;;;;;4.72;4.00;;;23.90;52.50;;;;;;5025209;28;20719;-83
2023/06/30 03:52:20;;;;;;;4.43;3.88;;;23.90;52.50;;;;;;5024469;28;20201;-83
2023/06/30 03:54:47;;;;;;;4.07;3.67;;;23.90;52.50;;;;;;5007406;28;20620;-83
2023/06/30 03:57:16;;;;;;;4.63;3.80;;;23.90;52.50;;;;;;5023581;28;20629;-83
2023/06/30 03:59:44;;;;;;;6.28;3.70;;;23.90;52.50;;;;;;5020471;28;20243;-83
2023/06/30 04:02:12;;;;;;;3.47;3.17;;;23.90;52.60;;;;;;5003478;28;20204;-83
2023/06/30 04:04:39;;;;;;;4.38;3.53;;;23.90;52.50;;;;;;5017245;28;20228;-83
2023/06/30 04:07:07;;;;;;;4.13;3.72;;;23.90;52.50;;;;;;5014767;28;20551;-83
2023/06/30 04:09:34;;;;;;;3.78;3.47;;;23.90;52.50;;;;;;5014603;28;20228;-83
2023/06/30 04:12:00;;;;;;;3.72;3.35;;;23.90;52.50;;;;;;5018615;28;20681;-83
2023/06/30 04:14:28;;;;;;;4.28;3.88;;;23.90;52.60;;;;;;5023615;28;20200;-83
2023/06/30 04:16:56;;;;;;;4.32;3.72;;;23.90;52.50;;;;;;5023767;28;20239;-83
2023/06/30 04:19:24;;;;;;;4.60;3.78;;;23.90;52.50;;;;;;5023245;28;20224;-83
2023/06/30 04:21:51;;;;;;;4.00;3.60;;;23.90;52.70;;;;;;5019344;28;20266;-83
2023/06/30 04:24:19;;;;;;;4.45;3.70;;;23.90;52.60;;;;;;5015574;28;20254;-83
2023/06/30 04:26:46;;;;;;;3.88;3.47;;;23.90;52.60;;;;;;5014423;28;20216;-83
2023/06/30 04:29:14;;;;;;;4.00;3.60;;;23.90;52.70;;;;;;5014745;28;20271;-82
2023/06/30 04:31:41;;;;;;;4.20;3.80;;;23.90;52.70;;;;;;5014894;28;20564;-83
2023/06/30 04:34:09;;;;;;;4.05;3.65;;;23.90;52.70;;;;;;5014128;28;20219;-83
2023/06/30 04:36:36;;;;;;;4.18;3.67;;;23.90;52.70;;;;;;5013954;28;20250;-83
2023/06/30 04:39:04;;;;;;;3.92;3.47;;;23.90;52.70;;;;;;5014239;28;20223;-83
2023/06/30 04:41:31;;;;;;;3.75;3.45;;;23.90;52.70;;;;;;5013895;28;20627;-83
2023/06/30 04:43:59;;;;;;;4.32;3.90;;;23.90;52.80;;;;;;5013914;28;20201;-83
2023/06/30 04:46:26;;;;;;;3.92;3.63;;;23.90;52.80;;;;;;5013768;28;20217;-83
2023/06/30 04:48:55;;;;;;;4.45;3.47;;;23.90;52.90;;;;;;5013739;28;20217;-82
2023/06/30 04:51:24;;;;;;;4.97;3.90;;;23.90;52.90;;;;;;5013375;28;20200;-82
2023/06/30 04:53:53;;;;;;;4.88;3.95;;;23.90;52.90;;;;;;5013493;28;20651;-83
2023/06/30 04:56:20;;;;;;;5.65;4.57;;;24.00;53.00;;;;;;5013914;28;20659;-83
2023/06/30 04:58:49;;;;;;;4.43;4.03;;;23.90;53.10;;;;;;4997369;28;20715;-83
2023/06/30 05:01:16;;;;;;;4.10;3.70;;;23.90;53.10;;;;;;5013339;28;20671;-83
2023/06/30 05:03:43;;;;;;;4.53;4.13;;;23.90;53.10;;;;;;4997647;28;20615;-83
2023/06/30 05:06:10;;;;;;;4.07;3.67;;;23.90;53.20;;;;;;5013406;28;20253;-83
2023/06/30 05:08:39;;;;;;;4.47;3.97;;;23.90;53.30;;;;;;5013680;28;20699;-82
2023/06/30 05:11:07;;;;;;;4.93;3.80;;;23.90;53.30;;;;;;5013866;28;20201;-82
2023/06/30 05:13:34;;;;;;;4.03;3.70;;;23.90;53.30;;;;;;5013906;28;20212;-82
2023/06/30 05:16:03;;;;;;;4.72;4.20;;;23.80;53.30;;;;;;5014081;28;20578;-82
2023/06/30 05:18:29;;;;;;;4.57;3.70;;;23.90;53.30;;;;;;5014356;28;20228;-82
2023/06/30 05:20:57;;;;;;;5.18;3.75;;;23.90;53.40;;;;;;5015116;28;20204;-82
2023/06/30 05:23:24;;;;;;;4.22;3.90;;;23.90;53.60;;;;;;5018365;28;20683;-82
2023/06/30 05:25:53;;;;;;;4.85;3.85;;;23.80;53.60;;;;;;5001316;28;20248;-82
2023/06/30 05:28:20;;;;;;;4.25;3.85;;;23.80;53.60;;;;;;5016791;28;20233;-82
2023/06/30 05:30:47;;;;;;;6.75;4.40;;;23.80;53.80;;;;;;5016720;28;20197;-83
2023/06/30 05:33:14;;;;;;;4.78;4.10;;;23.80;54.00;;;;;;5017142;28;20403;-83
2023/06/30 05:35:42;;;;;;;4.93;4.40;;;23.90;54.20;;;;;;5019794;28;20575;-83
2023/06/30 05:38:09;;;;;;;4.55;4.15;;;23.80;54.30;;;;;;5017066;28;20201;-83
2023/06/30 05:40:36;;;;;;;4.35;3.88;;;23.80;54.10;;;;;;5016777;28;20208;-83
2023/06/30 05:43:05;;;;;;;5.75;4.20;;;23.80;54.60;;;;;;5017746;28;20193;-83
2023/06/30 05:45:32;;;;;;;4.60;4.10;;;23.80;54.50;;;;;;5017576;28;20209;-83
2023/06/30 05:47:59;;;;;;;4.50;4.07;;;23.80;54.70;;;;;;5016760;28;20539;-83
2023/06/30 05:50:27;;;;;;;5.45;4.28;;;23.80;54.40;;;;;;5016237;28;20201;-83
2023/06/30 05:52:54;;;;;;;5.05;4.43;;;23.80;54.70;;;;;;5016130;28;20189;-82
2023/06/30 05:55:21;;;;;;;5.25;3.92;;;23.80;54.70;;;;;;5017042;28;20196;-83
2023/06/30 05:57:49;;;;;;;5.43;4.40;;;23.80;54.50;;;;;;5016967;28;20200;-83
2023/06/30 06:00:18;;;;;;;5.15;4.65;;;23.80;54.80;;;;;;5016332;28;20228;-83
2023/06/30 06:02:46;;;;;;;5.38;4.45;;;23.80;54.70;;;;;;5016233;28;20640;-82
2023/06/30 06:05:12;;;;;;;5.65;4.72;;;23.80;54.70;;;;;;5016074;28;20213;-83
2023/06/30 06:07:40;;;;;;;6.65;4.60;;;23.80;55.20;;;;;;5016251;28;20209;-83
2023/06/30 06:10:08;;;;;;;6.85;4.28;;;23.80;55.50;;;;;;5016046;28;20540;-83
2023/06/30 06:12:35;;;;;;;4.95;4.45;;;23.80;55.50;;;;;;5015723;28;20209;-82
2023/06/30 06:15:03;;;;;;;4.70;4.30;;;23.80;55.50;;;;;;5016628;28;20196;-82
2023/06/30 06:17:32;;;;;;;5.63;5.03;;;23.80;55.70;;;;;;5015671;28;20287;-82
2023/06/30 06:19:59;;;;;;;5.95;4.70;;;23.80;55.90;;;;;;5016487;28;20228;-82
2023/06/30 06:22:26;;;;;;;8.18;4.70;;;23.90;55.90;;;;;;5015389;28;20228;-82
2023/06/30 06:24:53;;;;;;;6.03;4.97;;;23.80;55.80;;;;;;5015630;28;20211;-82
2023/06/30 06:27:20;;;;;;;8.82;5.30;;;23.80;55.90;;;;;;5015874;28;20223;-82
2023/06/30 06:29:47;;;;;;;7.20;5.32;;;23.90;56.00;;;;;;5015875;28;20229;-82
2023/06/30 06:32:14;;;;;;;8.75;5.22;;;23.90;56.00;;;;;;4999840;28;20211;-82
2023/06/30 06:34:43;;;;;;;6.28;5.25;;;23.90;56.10;;;;;;5014986;28;20225;-82
2023/06/30 06:37:10;;;;;;;6.28;4.85;;;23.90;56.10;;;;;;5015048;28;20557;-82
2023/06/30 06:39:37;;;;;;;6.85;4.95;;;23.90;56.10;;;;;;5015328;28;20220;-82
2023/06/30 06:42:05;;;;;;;5.68;5.05;;;23.80;56.10;;;;;;5014865;28;20787;-82
2023/06/30 06:44:32;;;;;;;8.10;5.32;;;23.90;56.40;;;;;;5015904;28;20197;-82
2023/06/30 06:47:37;;;;;;;6.18;4.90;;;23.90;56.40;;;;;;5015956;28;20699;-82
2023/06/30 06:50:07;;;;;;;6.63;5.35;;;24.00;56.40;;;;;;5016078;28;20220;-82
2023/06/30 06:52:34;;;;;;;6.45;5.28;;;23.90;56.60;;;;;;5015742;28;20207;-82
2023/06/30 06:55:02;;;;;;;6.50;5.13;;;24.00;56.60;;;;;;5016564;28;20204;-82
2023/06/30 06:57:29;;;;;;;5.25;4.85;;;23.80;56.50;;;;;;5015861;28;20247;-82
2023/06/30 06:59:58;;;;;;;5.70;4.55;;;23.90;56.80;;;;;;5015648;28;20228;-82
2023/06/30 07:02:25;;;;;;;5.82;5.07;;;23.90;56.80;;;;;;5015407;28;20204;-82
2023/06/30 07:04:52;;;;;;;6.00;5.25;;;23.90;56.90;;;;;;4999257;28;20203;-82
2023/06/30 07:07:21;;;;;;;6.00;4.95;;;24.00;57.00;;;;;;5015879;28;20216;-82
2023/06/30 07:09:51;;;;;;;5.95;5.15;;;24.00;57.00;;;;;;5015447;28;20216;-82
2023/06/30 07:12:17;;;;;;;7.13;5.57;;;24.00;57.00;;;;;;5017626;28;20199;-82
2023/06/30 07:14:45;;;;;;;5.97;5.38;;;24.00;57.00;;;;;;5002189;28;20295;-82
2023/06/30 07:17:12;;;;;;;6.60;5.35;;;24.00;57.00;;;;;;5016547;28;20287;-82
2023/06/30 07:19:40;;;;;;;9.02;5.60;;;24.00;57.20;;;;;;5017673;28;20239;-82
2023/06/30 07:22:07;;;;;;;8.38;5.65;;;24.10;57.30;;;;;;5014338;28;20207;-82
2023/06/30 07:24:35;;;;;;;6.93;5.60;;;24.10;57.20;;;;;;5014967;28;20205;-82
2023/06/30 07:27:02;;;;;;;6.95;5.68;;;24.10;57.00;;;;;;5022227;28;20220;-82
2023/06/30 07:29:30;;;;;;;7.60;5.30;;;24.20;57.00;;;;;;5022037;28;20586;-82
2023/06/30 07:31:56;;;;;;;7.85;5.50;;;24.20;57.20;;;;;;5025881;28;20555;-82
2023/06/30 07:34:24;;;;;;;6.65;5.72;;;24.20;57.10;;;;;;5019411;28;20193;-82
2023/06/30 07:36:51;;;;;;;7.40;5.20;;;24.20;57.00;;;;;;5014574;28;20343;-83
2023/06/30 07:39:18;;;;;;;6.18;5.25;;;24.30;57.20;;;;;;5017523;28;20212;-82
2023/06/30 07:41:47;;;;;;;7.53;5.68;;;24.20;57.30;;;;;;5024033;28;20630;-82
2023/06/30 07:44:14;;;;;;;7.63;5.53;;;24.20;57.30;;;;;;5019237;28;20232;-82
2023/06/30 07:46:41;;;;;;;6.85;5.28;;;24.30;57.40;;;;;;5018375;28;20219;-81
2023/06/30 07:49:09;;;;;;;6.72;5.40;;;24.30;57.40;;;;;;5019109;28;20219;-82
2023/06/30 07:51:36;;;;;;;6.47;5.70;;;24.30;57.50;;;;;;5019716;28;20215;-82
2023/06/30 07:54:03;;;;;;;7.15;5.75;;;24.30;57.50;;;;;;5017917;28;20205;-82
2023/06/30 07:56:30;;;;;;;6.40;5.38;;;24.30;57.60;;;;;;5014541;28;20189;-82
2023/06/30 07:58:59;;;;;;;6.53;5.57;;;24.30;57.50;;;;;;5014191;28;20221;-82
2023/06/30 08:01:26;;;;;;;6.90;5.25;;;24.30;57.60;;;;;;5014494;28;20225;-82
2023/06/30 08:03:54;;;;;;;7.32;5.55;;;24.30;58.10;;;;;;5014323;28;20211;-82
2023/06/30 08:06:21;;;;;;;6.55;5.75;;;24.30;57.60;;;;;;5014475;28;20224;-83
2023/06/30 08:08:48;;;;;;;6.60;5.55;;;24.30;57.50;;;;;;5015002;28;20213;-83
2023/06/30 08:11:15;;;;;;;8.65;6.50;;;24.30;57.70;;;;;;5014535;28;20212;-83
2023/06/30 08:13:42;;;;;;;9.20;6.38;;;24.30;57.40;;;;;;5014264;28;20192;-83
2023/06/30 08:16:11;;;;;;;8.38;6.13;;;24.30;57.50;;;;;;5012985;28;20196;-83
2023/06/30 08:18:38;;;;;;;8.02;6.35;;;24.30;57.80;;;;;;5013744;28;20216;-84
2023/06/30 08:21:05;;;;;;;7.90;6.57;;;24.40;58.00;;;;;;5013588;28;20197;-84
2023/06/30 08:23:32;;;;;;;8.30;7.10;;;24.30;58.00;;;;;;5014754;28;20255;-83
2023/06/30 08:25:59;;;;;;;9.55;7.53;;;24.30;58.20;;;;;;5014116;28;20196;-83
2023/06/30 08:28:26;;;;;;;10.82;8.98;;;24.30;59.90;;;;;;5014729;28;20228;-85
2023/06/30 08:30:54;;;;;;;11.63;9.73;;;24.20;63.90;;;;;;5014396;28;20197;-84
2023/06/30 08:33:28;;;;;;;10.93;9.05;;;24.00;66.30;;;;;;5013797;28;20197;-84
2023/06/30 08:35:56;;;;;;;10.35;9.23;;;23.90;66.90;;;;;;5013534;28;20250;-84
2023/06/30 08:38:23;;;;;;;12.13;9.27;;;23.80;66.80;;;;;;5013533;28;20212;-84
2023/06/30 08:40:50;;;;;;;11.38;9.20;;;23.80;67.40;;;;;;5013464;28;20227;-84
2023/06/30 08:43:17;;;;;;;14.80;10.38;;;23.80;67.60;;;;;;5013308;28;20572;-83
2023/06/30 08:45:45;;;;;;;12.10;10.35;;;23.70;68.10;;;;;;5013608;28;20578;-85
2023/06/30 08:48:12;;;;;;;13.82;11.38;;;23.70;68.30;;;;;;5012848;28;20227;-84
2023/06/30 08:50:40;;;;;;;15.18;11.52;;;23.70;68.30;;;;;;5013365;28;20204;-84
2023/06/30 08:53:07;;;;;;;14.77;11.13;;;23.70;68.30;;;;;;5013201;28;20201;-84
2023/06/30 08:55:34;;;;;;;17.30;11.75;;;23.70;66.10;;;;;;5013122;28;20250;-84
2023/06/30 08:58:01;;;;;;;16.20;13.05;;;23.70;66.70;;;;;;5016682;28;20197;-84
2023/06/30 09:00:28;;;;;;;16.95;13.27;;;23.70;64.40;;;;;;5017264;28;20609;-83
2023/06/30 09:02:56;;;;;;;17.33;13.45;;;23.70;64.50;;;;;;5017093;28;20212;-83
2023/06/30 09:05:24;;;;;;;17.15;13.30;;;23.70;64.90;;;;;;5017512;28;20208;-83
2023/06/30 09:07:54;;;;;;;18.13;13.82;;;23.60;66.10;;;;;;5016891;28;20235;-83
2023/06/30 09:10:21;;;;;;;17.15;13.80;;;23.50;66.40;;;;;;5017166;28;20224;-83
2023/06/30 09:12:49;;;;;;;18.63;14.10;;;23.40;67.10;;;;;;5001426;28;20197;-83
2023/06/30 09:15:17;;;;;;;17.67;13.80;;;23.40;68.00;;;;;;5016811;28;20246;-83
2023/06/30 09:17:44;;;;;;;15.82;12.82;;;23.30;69.20;;;;;;5017087;28;20189;-84
2023/06/30 09:20:13;;;;;;;17.15;13.85;;;23.30;69.00;;;;;;5016898;28;20224;-84
2023/06/30 09:22:41;;;;;;;18.20;12.65;;;23.30;67.90;;;;;;5017689;28;20197;-84
2023/06/30 09:25:25;;;;;;;20.42;14.38;;;23.40;67.40;;;;;;5016503;28;20208;-84
2023/06/30 09:27:52;;;;;;;18.33;13.23;;;23.50;67.20;;;;;;5015940;28;20225;-84
2023/06/30 09:30:19;;;;;;;15.52;12.38;;;23.60;66.70;;;;;;5016313;28;20316;-85
2023/06/30 09:32:46;;;;;;;15.98;12.00;;;23.60;66.50;;;;;;5016235;28;20204;-85
2023/06/30 09:35:16;;;;;;;16.40;12.80;;;23.60;66.10;;;;;;5016903;28;20223;-85
2023/06/30 09:37:44;;;;;;;15.65;11.98;;;23.70;65.90;;;;;;5016608;28;20200;-86
2023/06/30 12:46:30;;;;;;;18.95;15.57;;;24.80;63.80;;;;;;5034269;28;20277;-56
2023/06/30 12:48:57;;;;;;;16.98;15.10;;;24.80;63.70;;;;;;5035477;28;20262;-56
2023/06/30 12:51:24;;;;;;;17.15;14.48;;;24.90;62.80;;;;;;5036684;28;20207;-56
2023/06/30 12:53:51;;;;;;;17.25;15.18;;;24.90;62.00;;;;;;5035626;28;20615;-56
2023/06/30 12:56:18;;;;;;;16.90;14.70;;;24.90;61.70;;;;;;5035487;28;20551;-56
2023/06/30 12:58:45;;;;;;;16.70;14.90;;;25.00;61.80;;;;;;5035312;28;20196;-56
2023/06/30 13:01:12;;;;;;;17.02;14.73;;;25.00;62.20;;;;;;5036535;28;20653;-55
2023/06/30 13:03:41;;;;;;;16.38;14.40;;;25.10;61.00;;;;;;5036428;28;20199;-56
2023/06/30 13:06:08;;;;;;;17.45;15.13;;;25.10;60.60;;;;;;5036373;28;20271;-56
2023/06/30 13:08:35;;;;;;;17.10;15.10;;;25.10;60.40;;;;;;5035069;28;20298;-56
2023/06/30 13:11:02;;;;;;;16.75;14.45;;;25.10;60.40;;;;;;5034846;28;20666;-56
2023/06/30 13:13:29;;;;;;;16.60;14.77;;;25.10;60.20;;;;;;5036443;28;20555;-56
2023/06/30 13:15:56;;;;;;;16.77;14.80;;;25.20;60.00;;;;;;5034881;28;20192;-56
2023/06/30 13:18:23;;;;;;;16.27;14.63;;;25.20;60.00;;;;;;5034727;28;20195;-56
2023/06/30 13:20:52;;;;;;;18.20;15.07;;;25.20;59.90;;;;;;5034871;28;20614;-56
2023/06/30 13:23:19;;;;;;;16.80;14.57;;;25.20;59.70;;;;;;5034614;28;20270;-56
2023/06/30 13:25:46;;;;;;;17.27;14.55;;;25.30;59.50;;;;;;5035973;28;20234;-55
2023/06/30 13:28:13;;;;;;;17.95;14.27;;;25.30;59.30;;;;;;5034565;28;20220;-56
2023/06/30 13:30:41;;;;;;;18.42;15.27;;;25.30;59.30;;;;;;5035325;28;20199;-55
2023/06/30 13:33:08;;;;;;;15.48;13.82;;;25.30;59.10;;;;;;5034511;28;20307;-56
2023/06/30 13:35:35;;;;;;;16.45;14.65;;;25.30;59.10;;;;;;5036111;28;20192;-56
2023/06/30 13:38:04;;;;;;;16.23;14.48;;;25.30;59.00;;;;;;5034399;28;20692;-56
2023/06/30 13:40:31;;;;;;;16.15;14.45;;;25.40;59.10;;;;;;5035750;28;20188;-55
2023/06/30 13:42:58;;;;;;;16.45;14.35;;;25.40;58.80;;;;;;5033066;28;20224;-55
2023/06/30 13:45:26;;;;;;;17.30;14.57;;;25.40;58.80;;;;;;5034296;28;20212;-56
2023/06/30 13:47:53;;;;;;;16.17;14.48;;;25.40;58.80;;;;;;5034269;28;20302;-55
2023/06/30 13:50:20;;;;;;;18.67;15.13;;;25.40;58.70;;;;;;5034310;28;20279;-57
2023/06/30 13:52:47;;;;;;;15.82;14.13;;;25.40;58.80;;;;;;5035368;28;20211;-57
2023/06/30 13:55:16;;;;;;;17.27;14.73;;;25.50;58.50;;;;;;5034062;28;20571;-58
2023/06/30 13:57:43;;;;;;;16.63;14.60;;;25.50;58.50;;;;;;5034111;28;20202;-57
2023/06/30 14:00:11;;;;;;;15.70;14.10;;;25.50;58.40;;;;;;5034064;28;20235;-56
2023/06/30 14:02:39;;;;;;;16.80;14.48;;;25.50;58.30;;;;;;5035134;28;20203;-56
2023/06/30 14:05:06;;;;;;;18.75;14.30;;;25.50;58.10;;;;;;5035354;28;20262;-57
2023/06/30 14:07:33;;;;;;;17.75;14.70;;;25.60;58.10;;;;;;5035371;28;20335;-57
2023/06/30 14:10:00;;;;;;;15.95;14.20;;;25.60;57.90;;;;;;5033894;28;20589;-58
2023/06/30 14:12:30;;;;;;;16.13;14.40;;;25.60;57.90;;;;;;5035073;28;20208;-57
2023/06/30 14:14:57;;;;;;;17.13;14.88;;;25.60;57.80;;;;;;5033801;28;20208;-59
2023/06/30 14:17:24;;;;;;;19.20;16.25;;;25.60;57.80;;;;;;5034775;28;20204;-58
2023/06/30 14:19:51;;;;;;;18.42;15.27;;;25.60;57.80;;;;;;5033713;28;20291;-58
2023/06/30 14:22:18;;;;;;;18.80;15.50;;;25.60;57.80;;;;;;5033639;28;20215;-58
2023/06/30 14:24:46;;;;;;;20.90;15.75;;;25.60;57.80;;;;;;5034948;28;20656;-58
2023/06/30 14:27:13;;;;;;;17.52;15.50;;;25.60;57.70;;;;;;5034897;28;20210;-58
2023/06/30 14:29:42;;;;;;;17.13;14.85;;;25.60;57.70;;;;;;5035022;28;20672;-54
2023/06/30 14:32:10;;;;;;;15.82;14.13;;;25.50;57.50;;;;;;5038245;22;20235;-84
2023/06/30 14:34:38;;;;;;;19.15;17.10;;;25.60;57.40;;;;;;5015892;28;20205;-84
2023/06/30 14:37:05;;;;;;;17.55;15.63;;;25.50;58.20;;;;;;5016914;28;20233;-87
2023/06/30 14:39:33;;;;;;;18.90;16.92;;;25.40;58.80;;;;;;5016242;28;20224;-87
2023/06/30 14:42:00;;;;;;;19.73;17.13;;;25.30;59.30;;;;;;5017861;28;20246;-86
2023/06/30 14:44:27;;;;;;;20.63;16.75;;;25.30;59.30;;;;;;4999816;28;20258;-86
2023/06/30 14:46:56;;;;;;;21.42;17.33;;;25.20;59.60;;;;;;5001026;28;20203;-86
2023/06/30 14:49:23;;;;;;;22.42;17.27;;;25.20;60.00;;;;;;5017733;28;20596;-86
2023/06/30 14:51:50;;;;;;;22.02;17.45;;;25.20;59.30;;;;;;5017490;28;20204;-87
2023/06/30 14:54:17;;;;;;;19.95;17.02;;;25.30;59.30;;;;;;4999711;28;20250;-87
2023/06/30 14:56:45;;;;;;;20.20;17.25;;;25.30;59.00;;;;;;5015073;28;20235;-86
2023/06/30 14:59:12;;;;;;;21.08;17.15;;;25.20;59.20;;;;;;5016014;28;20219;-86
2023/06/30 15:01:39;;;;;;;19.65;16.60;;;25.20;60.00;;;;;;5015830;28;20609;-86
2023/06/30 15:04:07;;;;;;;20.33;17.38;;;25.20;60.30;;;;;;4999209;28;20210;-86
2023/06/30 15:06:35;;;;;;;21.75;17.40;;;25.20;60.50;;;;;;5015554;28;20211;-86
2023/06/30 15:09:02;;;;;;;18.02;16.13;;;25.20;59.60;;;;;;5017124;28;20637;-86
2023/06/30 15:11:29;;;;;;;19.02;16.08;;;25.20;58.70;;;;;;5014841;28;20545;-87
2023/06/30 15:13:56;;;;;;;21.33;16.55;;;25.20;59.00;;;;;;5017084;28;20207;-87
2023/06/30 15:16:24;;;;;;;19.63;16.33;;;25.20;58.60;;;;;;5015026;28;20203;-86
2023/06/30 15:18:51;;;;;;;19.73;16.02;;;25.20;58.50;;;;;;5014463;28;20213;-86
2023/06/30 15:21:19;;;;;;;18.83;16.15;;;25.30;58.40;;;;;;4998309;28;20300;-86
2023/06/30 15:23:46;;;;;;;19.30;15.77;;;25.20;58.60;;;;;;5014603;28;20196;-86
2023/06/30 15:26:14;;;;;;;18.85;15.52;;;25.30;59.30;;;;;;5014382;28;20209;-87
2023/06/30 15:28:40;;;;;;;18.20;14.88;;;25.30;59.60;;;;;;5014990;28;20311;-87
2023/06/30 15:31:07;;;;;;;20.33;15.27;;;25.30;59.90;;;;;;5015517;28;20251;-87
2023/06/30 15:33:35;;;;;;;18.13;14.77;;;25.20;59.60;;;;;;5014786;28;20235;-87
2023/06/30 15:36:01;;;;;;;17.85;15.15;;;25.30;59.30;;;;;;5014077;28;20200;-87
2023/06/30 15:38:30;;;;;;;17.83;15.18;;;25.20;59.40;;;;;;5013825;28;20217;-87
2023/06/30 15:40:57;;;;;;;18.83;15.00;;;25.10;57.70;;;;;;5013918;28;20209;-87
2023/06/30 15:43:24;;;;;;;17.38;14.50;;;25.10;58.10;;;;;;5013726;28;20196;-87
2023/06/30 15:45:54;;;;;;;17.00;15.07;;;25.10;58.50;;;;;;4997555;28;20204;-87
2023/06/30 15:48:22;;;;;;;19.00;15.40;;;25.10;58.30;;;;;;5013706;28;20224;-86